Time;durP1;ratioP1;P1;durP2;ratioP2;P2;SDS_P1;SDS_P2;PMS_P1;PMS_P2;Temp;Humidity;BMP_temperature;BMP_pressure;BME280_temperature;BME280_humidity;BME280_pressure;Samples;Min_cycle;Max_cycle;Signal;HPM_P1;HPM_P2
2021/11/30 00:02:33;;;;;;;14.18;11.43;;;4.50;99.90;;;;;;5060515;28;20208;-72
2021/11/30 00:05:19;;;;;;;16.17;10.88;;;4.50;99.90;;;;;;5068530;28;20712;-72
2021/11/30 00:08:05;;;;;;;16.63;10.43;;;4.50;99.90;;;;;;5078920;28;20250;-72
2021/11/30 00:10:51;;;;;;;17.13;11.25;;;4.50;99.90;;;;;;5069076;28;20285;-73
2021/11/30 00:13:38;;;;;;;15.80;11.20;;;4.40;99.90;;;;;;5065248;28;20301;-72
2021/11/30 00:16:24;;;;;;;16.70;11.05;;;4.40;99.90;;;;;;5073931;28;20264;-73
2021/11/30 00:19:10;;;;;;;15.27;10.18;;;4.50;99.90;;;;;;5067595;28;20228;-74
2021/11/30 00:21:57;;;;;;;16.80;12.27;;;4.50;99.90;;;;;;5070106;28;20199;-72
2021/11/30 00:24:45;;;;;;;12.48;10.02;;;4.50;99.90;;;;;;5071288;28;20227;-71
2021/11/30 00:27:31;;;;;;;16.55;11.30;;;4.50;99.90;;;;;;5072988;28;20227;-72
2021/11/30 00:30:16;;;;;;;14.85;11.52;;;4.60;99.90;;;;;;5075837;28;20349;-71
2021/11/30 00:33:03;;;;;;;15.90;10.80;;;4.50;99.90;;;;;;5067940;28;20440;-73
2021/11/30 00:35:49;;;;;;;14.82;11.07;;;4.50;99.90;;;;;;5070734;28;20328;-71
2021/11/30 00:38:36;;;;;;;13.35;10.27;;;4.60;99.90;;;;;;5071547;28;20579;-72
2021/11/30 00:41:21;;;;;;;21.85;10.13;;;4.60;99.90;;;;;;5068819;28;20311;-73
2021/11/30 00:44:08;;;;;;;19.13;10.65;;;4.60;99.90;;;;;;5070018;28;20199;-72
2021/11/30 00:46:55;;;;;;;21.98;11.15;;;4.60;99.90;;;;;;5070693;28;20258;-71
2021/11/30 00:49:40;;;;;;;18.42;10.30;;;4.60;99.90;;;;;;5071841;28;20219;-72
2021/11/30 00:52:26;;;;;;;22.33;11.18;;;4.60;99.90;;;;;;5061999;28;20370;-72
2021/11/30 00:55:14;;;;;;;15.23;10.27;;;4.60;99.90;;;;;;5070067;28;20204;-71
2021/11/30 00:58:00;;;;;;;19.05;10.02;;;4.60;99.90;;;;;;5065959;28;20200;-71
2021/11/30 01:00:46;;;;;;;19.25;10.60;;;4.70;99.90;;;;;;5069295;28;20196;-73
2021/11/30 01:03:31;;;;;;;16.92;10.50;;;4.60;99.90;;;;;;5075488;28;20228;-71
2021/11/30 01:06:17;;;;;;;21.95;10.70;;;4.70;99.90;;;;;;5066470;28;20220;-71
2021/11/30 01:09:05;;;;;;;17.88;10.25;;;4.70;99.90;;;;;;5072563;28;20278;-72
2021/11/30 01:11:52;;;;;;;12.60;10.55;;;4.60;99.90;;;;;;5072515;28;20204;-72
2021/11/30 01:14:38;;;;;;;13.13;9.02;;;4.60;99.90;;;;;;5066548;28;20278;-73
2021/11/30 01:17:24;;;;;;;19.08;10.32;;;4.60;99.90;;;;;;5064624;28;20732;-72
2021/11/30 01:20:11;;;;;;;15.50;9.27;;;4.60;99.90;;;;;;5073930;28;20740;-73
2021/11/30 01:22:57;;;;;;;23.45;9.52;;;4.60;99.90;;;;;;5075254;28;20203;-72
2021/11/30 01:25:42;;;;;;;20.08;10.70;;;4.60;99.90;;;;;;5072128;28;20358;-72
2021/11/30 01:28:29;;;;;;;18.88;9.93;;;4.50;99.90;;;;;;5066678;28;20216;-72
2021/11/30 01:31:15;;;;;;;14.90;9.85;;;4.50;99.90;;;;;;5081944;28;20315;-73
2021/11/30 01:34:01;;;;;;;13.20;9.95;;;4.50;99.90;;;;;;5071349;28;20271;-71
2021/11/30 01:36:47;;;;;;;12.00;9.45;;;4.60;99.90;;;;;;5089338;28;20379;-72
2021/11/30 01:39:33;;;;;;;12.77;9.20;;;4.60;99.90;;;;;;5072152;28;20219;-72
2021/11/30 01:42:19;;;;;;;21.05;9.82;;;4.60;99.90;;;;;;5066052;28;20724;-72
2021/11/30 01:45:09;;;;;;;17.13;9.73;;;4.60;99.90;;;;;;5075292;28;20279;-72
2021/11/30 01:49:06;;;;;;;23.85;8.48;;;4.60;99.90;;;;;;5071697;28;20224;-71
2021/11/30 01:51:05;;;;;;;15.38;9.00;;;4.70;99.90;;;;;;5067846;28;20204;-72
2021/11/30 01:53:52;;;;;;;15.90;8.23;;;4.70;99.90;;;;;;5069895;28;20205;-73
2021/11/30 01:56:38;;;;;;;13.15;6.85;;;4.70;99.90;;;;;;5064105;28;20216;-71
2021/11/30 01:59:24;;;;;;;12.38;7.78;;;4.70;99.90;;;;;;5067996;28;20215;-73
2021/11/30 02:02:12;;;;;;;8.13;6.35;;;4.60;99.90;;;;;;5068966;28;20208;-73
2021/11/30 02:04:57;;;;;;;7.90;6.18;;;4.60;99.90;;;;;;5070660;28;20204;-72
2021/11/30 02:07:45;;;;;;;15.18;5.95;;;4.50;99.90;;;;;;5062778;28;20286;-72
2021/11/30 02:10:31;;;;;;;11.43;5.68;;;4.50;99.90;;;;;;5062395;28;20594;-72
2021/11/30 02:13:17;;;;;;;12.75;7.15;;;4.50;99.90;;;;;;5071386;28;20204;-71
2021/11/30 02:16:05;;;;;;;7.50;5.60;;;4.50;99.90;;;;;;5072146;28;20200;-72
2021/11/30 02:18:54;;;;;;;11.70;6.22;;;4.50;99.90;;;;;;5084795;22;20211;-76
2021/11/30 02:21:42;;;;;;;9.00;5.68;;;4.50;99.90;;;;;;5080145;28;20705;-76
2021/11/30 02:24:27;;;;;;;10.80;6.30;;;4.60;99.90;;;;;;5081752;28;20200;-77
2021/11/30 02:27:13;;;;;;;15.27;5.45;;;4.50;99.90;;;;;;5088129;28;20215;-77
2021/11/30 02:29:59;;;;;;;11.18;5.93;;;4.60;99.90;;;;;;5084444;28;20219;-76
2021/11/30 02:32:45;;;;;;;8.57;4.90;;;4.60;99.90;;;;;;5061930;28;20208;-76
2021/11/30 02:35:30;;;;;;;9.98;5.03;;;4.60;99.90;;;;;;5069140;28;20684;-76
2021/11/30 02:38:18;;;;;;;8.95;5.43;;;4.70;99.90;;;;;;5068118;28;20267;-77
2021/11/30 02:41:03;;;;;;;8.65;5.50;;;4.60;99.90;;;;;;5074244;28;20208;-77
2021/11/30 02:43:49;;;;;;;10.07;5.28;;;4.60;99.90;;;;;;5065490;28;20353;-74
2021/11/30 02:46:37;;;;;;;7.70;6.13;;;4.60;99.90;;;;;;5061198;28;20196;-76
2021/11/30 02:49:26;;;;;;;7.55;5.13;;;4.60;99.90;;;;;;5066039;28;20228;-77
2021/11/30 02:52:14;;;;;;;7.97;5.40;;;4.60;99.90;;;;;;5061476;28;20692;-77
2021/11/30 02:55:01;;;;;;;7.57;4.60;;;4.60;99.90;;;;;;5068253;28;20201;-77
2021/11/30 02:57:48;;;;;;;9.45;5.57;;;4.60;99.90;;;;;;5071551;28;20243;-77
2021/11/30 03:00:34;;;;;;;7.07;5.63;;;4.60;99.90;;;;;;5059900;28;20298;-75
2021/11/30 03:03:19;;;;;;;6.30;5.13;;;4.60;99.90;;;;;;5071498;28;20200;-76
2021/11/30 03:06:05;;;;;;;8.27;6.20;;;4.60;99.90;;;;;;5073539;28;20204;-76
2021/11/30 03:08:51;;;;;;;12.77;5.15;;;4.60;99.90;;;;;;5069875;28;20322;-77
2021/11/30 03:11:39;;;;;;;10.45;6.30;;;4.60;99.90;;;;;;5068464;28;20219;-77
2021/11/30 03:14:27;;;;;;;10.75;6.65;;;4.60;99.90;;;;;;5073019;28;20772;-77
2021/11/30 03:17:14;;;;;;;15.40;6.53;;;4.50;99.90;;;;;;5066259;28;20558;-77
2021/11/30 03:19:59;;;;;;;7.95;6.10;;;4.50;99.90;;;;;;5064580;28;20231;-73
2021/11/30 03:22:46;;;;;;;15.55;6.53;;;4.50;99.90;;;;;;5070172;28;20204;-76
2021/11/30 03:25:31;;;;;;;9.15;6.25;;;4.40;99.90;;;;;;5071800;28;20203;-77
2021/11/30 03:28:18;;;;;;;9.05;6.05;;;4.40;99.90;;;;;;5068396;28;20767;-76
2021/11/30 03:31:06;;;;;;;9.05;5.78;;;4.30;99.90;;;;;;5064134;28;20204;-76
2021/11/30 03:33:59;;;;;;;13.63;6.47;;;4.40;99.90;;;;;;5072497;28;20208;-77
2021/11/30 03:36:47;;;;;;;9.57;5.85;;;4.40;99.90;;;;;;5061432;28;20201;-77
2021/11/30 03:39:32;;;;;;;11.10;8.25;;;4.40;99.90;;;;;;5073572;28;20223;-75
2021/11/30 03:42:19;;;;;;;9.77;6.22;;;4.50;99.90;;;;;;5071631;28;20203;-76
2021/11/30 03:45:08;;;;;;;10.23;5.57;;;4.40;99.90;;;;;;5066603;28;20204;-74
2021/11/30 03:47:54;;;;;;;13.25;5.60;;;4.40;99.90;;;;;;5070682;28;20220;-77
2021/11/30 03:50:40;;;;;;;11.00;6.10;;;4.40;99.90;;;;;;5067209;28;20229;-77
2021/11/30 03:53:25;;;;;;;8.85;5.88;;;4.30;99.90;;;;;;5078694;28;20208;-76
2021/11/30 03:56:10;;;;;;;8.45;5.50;;;4.40;99.90;;;;;;5067251;28;20647;-77
2021/11/30 03:58:56;;;;;;;7.18;5.53;;;4.40;99.90;;;;;;5071664;28;20338;-77
2021/11/30 04:01:44;;;;;;;12.50;6.18;;;4.40;99.90;;;;;;5065951;28;20208;-76
2021/11/30 04:04:33;;;;;;;8.15;5.70;;;4.50;99.90;;;;;;5069002;28;20204;-76
2021/11/30 04:07:19;;;;;;;11.05;5.40;;;4.50;99.90;;;;;;5072613;28;20639;-77
2021/11/30 04:10:05;;;;;;;15.30;6.13;;;4.50;99.90;;;;;;5061408;28;20236;-77
2021/11/30 04:12:51;;;;;;;9.57;5.93;;;4.40;99.90;;;;;;5074682;28;20277;-77
2021/11/30 04:15:37;;;;;;;9.10;5.90;;;4.30;99.90;;;;;;5070933;28;20671;-77
2021/11/30 04:18:25;;;;;;;8.63;6.35;;;4.20;99.90;;;;;;5069589;28;20566;-77
2021/11/30 04:21:12;;;;;;;7.78;5.80;;;4.30;99.90;;;;;;5065645;28;20196;-76
2021/11/30 04:23:58;;;;;;;7.30;5.22;;;4.20;99.90;;;;;;5059667;28;20710;-76
2021/11/30 04:26:44;;;;;;;12.32;5.45;;;4.30;99.90;;;;;;5067171;28;20270;-77
2021/11/30 04:29:30;;;;;;;9.40;5.88;;;4.30;99.90;;;;;;5067727;28;20351;-77
2021/11/30 04:32:16;;;;;;;15.50;6.40;;;4.30;99.90;;;;;;5063825;28;20204;-76
2021/11/30 04:35:03;;;;;;;9.15;6.05;;;4.30;99.90;;;;;;5075556;28;20298;-77
2021/11/30 04:37:49;;;;;;;11.50;6.85;;;4.30;99.90;;;;;;5071039;28;20564;-77
2021/11/30 04:40:35;;;;;;;10.23;5.63;;;4.30;99.90;;;;;;5060526;28;20582;-76
2021/11/30 04:43:21;;;;;;;16.38;7.55;;;4.20;99.90;;;;;;5072800;28;20200;-77
2021/11/30 04:46:11;;;;;;;9.20;6.72;;;4.10;99.90;;;;;;5072922;28;20563;-76
2021/11/30 04:48:59;;;;;;;8.27;6.72;;;4.00;99.90;;;;;;5064256;28;20409;-75
2021/11/30 04:51:45;;;;;;;15.65;7.80;;;3.90;99.90;;;;;;5075206;28;20203;-77
2021/11/30 04:54:31;;;;;;;13.18;7.78;;;3.80;99.90;;;;;;5068103;28;20208;-76
2021/11/30 04:57:17;;;;;;;13.85;7.53;;;3.80;99.90;;;;;;5069052;28;20579;-75
2021/11/30 05:00:04;;;;;;;14.10;8.65;;;3.70;99.90;;;;;;5058122;28;20263;-76
2021/11/30 05:02:50;;;;;;;9.35;7.82;;;3.70;99.90;;;;;;5065920;28;20268;-77
2021/11/30 05:05:36;;;;;;;12.48;9.00;;;3.60;99.90;;;;;;5074509;28;20246;-76
2021/11/30 05:08:24;;;;;;;9.20;7.80;;;3.50;99.90;;;;;;5076397;28;20760;-77
2021/11/30 05:11:09;;;;;;;11.75;8.60;;;3.50;99.90;;;;;;5078494;28;20251;-76
2021/11/30 05:13:55;;;;;;;10.35;7.20;;;3.50;99.90;;;;;;5072809;28;20199;-76
2021/11/30 05:16:41;;;;;;;8.60;6.60;;;3.40;99.90;;;;;;5079364;28;20282;-77
2021/11/30 05:19:27;;;;;;;13.98;7.93;;;3.40;99.90;;;;;;5066344;28;20228;-77
2021/11/30 05:22:13;;;;;;;11.57;8.07;;;3.40;99.90;;;;;;5074997;28;20204;-77
2021/11/30 05:25:01;;;;;;;9.98;7.18;;;3.40;99.90;;;;;;5067998;28;20208;-76
2021/11/30 05:27:48;;;;;;;12.10;8.00;;;3.40;99.90;;;;;;5067310;28;20224;-74
2021/11/30 05:30:37;;;;;;;17.55;8.75;;;3.30;99.90;;;;;;5067799;28;20219;-76
2021/11/30 05:33:23;;;;;;;22.20;9.48;;;3.30;99.90;;;;;;5073830;28;20204;-77
2021/11/30 05:36:09;;;;;;;12.95;9.90;;;3.30;99.90;;;;;;5076993;28;20684;-77
2021/11/30 05:38:55;;;;;;;13.35;8.82;;;3.20;99.90;;;;;;5071270;28;20264;-77
2021/11/30 05:41:42;;;;;;;13.57;8.93;;;3.30;99.90;;;;;;5072449;28;20203;-77
2021/11/30 05:44:27;;;;;;;15.45;8.48;;;3.30;99.90;;;;;;5078045;28;20192;-77
2021/11/30 05:47:13;;;;;;;17.98;9.30;;;3.30;99.90;;;;;;5076580;28;20207;-77
2021/11/30 05:49:59;;;;;;;11.10;8.27;;;3.10;99.90;;;;;;5058210;28;20760;-76
2021/11/30 05:52:45;;;;;;;13.05;8.80;;;3.10;99.90;;;;;;5062707;28;20319;-76
2021/11/30 05:55:31;;;;;;;17.42;9.98;;;3.10;99.90;;;;;;5075542;28;20199;-76
2021/11/30 05:58:18;;;;;;;11.88;9.23;;;3.10;99.90;;;;;;5065656;28;20252;-77
2021/11/30 06:01:10;;;;;;;19.15;8.80;;;3.10;99.90;;;;;;5064635;28;20350;-77
2021/11/30 06:04:00;;;;;;;9.93;7.53;;;3.10;99.90;;;;;;5072248;28;20317;-76
2021/11/30 06:06:45;;;;;;;11.63;8.80;;;3.00;99.90;;;;;;5073379;28;20772;-77
2021/11/30 06:09:33;;;;;;;11.35;8.73;;;3.10;99.90;;;;;;5075362;28;20720;-77
2021/11/30 06:12:19;;;;;;;12.32;8.57;;;3.00;99.90;;;;;;5072728;28;20200;-77
2021/11/30 06:15:07;;;;;;;13.18;9.70;;;3.10;99.90;;;;;;5073707;28;20673;-76
2021/11/30 06:17:52;;;;;;;17.83;7.95;;;3.10;99.90;;;;;;5068071;28;20199;-77
2021/11/30 06:20:38;;;;;;;12.77;9.60;;;3.10;99.90;;;;;;5071725;28;20605;-76
2021/11/30 06:23:24;;;;;;;14.40;8.80;;;3.10;99.90;;;;;;5068329;28;20335;-76
2021/11/30 06:26:12;;;;;;;11.35;8.20;;;3.20;99.90;;;;;;5066527;28;20247;-74
2021/11/30 06:28:58;;;;;;;16.42;8.68;;;3.10;99.90;;;;;;5068602;28;20223;-76
2021/11/30 06:31:45;;;;;;;15.25;8.85;;;3.10;99.90;;;;;;5070614;28;20251;-76
2021/11/30 06:34:31;;;;;;;12.35;8.82;;;3.10;99.90;;;;;;5073315;28;20201;-77
2021/11/30 06:37:17;;;;;;;10.45;8.18;;;3.10;99.90;;;;;;5061873;28;20712;-77
2021/11/30 06:40:04;;;;;;;17.17;8.68;;;3.10;99.90;;;;;;5070117;28;20216;-75
2021/11/30 06:42:49;;;;;;;14.45;9.52;;;3.10;99.90;;;;;;5070451;28;20208;-77
2021/11/30 06:45:35;;;;;;;12.57;9.57;;;3.10;99.90;;;;;;5073355;28;20293;-77
2021/11/30 06:48:21;;;;;;;11.52;8.38;;;3.00;99.90;;;;;;5073546;28;20227;-76
2021/11/30 06:51:07;;;;;;;13.93;9.00;;;3.00;99.90;;;;;;5070749;28;20200;-77
2021/11/30 06:53:53;;;;;;;10.35;7.93;;;3.00;99.90;;;;;;5074121;28;20200;-77
2021/11/30 06:56:39;;;;;;;15.95;7.97;;;3.00;99.90;;;;;;5066802;28;20203;-76
2021/11/30 06:59:28;;;;;;;10.60;8.32;;;3.00;99.90;;;;;;5070097;28;20219;-77
2021/11/30 07:02:14;;;;;;;15.63;8.43;;;3.10;99.90;;;;;;5075744;28;20565;-76
2021/11/30 07:05:06;;;;;;;9.90;6.95;;;3.10;99.90;;;;;;5074529;28;20684;-75
2021/11/30 07:08:11;;;;;;;10.50;7.95;;;3.10;99.90;;;;;;5064650;28;20326;-76
2021/11/30 07:11:03;;;;;;;10.18;7.43;;;3.10;99.90;;;;;;5066758;28;20250;-75
2021/11/30 07:13:49;;;;;;;9.13;6.85;;;3.00;99.90;;;;;;5071545;28;20358;-76
2021/11/30 07:16:35;;;;;;;10.20;6.80;;;2.90;99.90;;;;;;5069661;28;20212;-75
2021/11/30 07:19:21;;;;;;;10.77;5.93;;;2.90;99.90;;;;;;5068865;28;20454;-77
2021/11/30 07:22:08;;;;;;;8.10;6.38;;;2.80;99.90;;;;;;5073095;28;20207;-76
2021/11/30 07:24:54;;;;;;;9.10;6.35;;;2.80;99.90;;;;;;5071072;28;20261;-76
2021/11/30 07:27:39;;;;;;;10.90;7.28;;;2.80;99.90;;;;;;5062816;28;20199;-76
2021/11/30 07:30:25;;;;;;;13.27;6.65;;;2.80;99.90;;;;;;5065793;28;20370;-77
2021/11/30 07:33:10;;;;;;;9.35;5.90;;;2.90;99.90;;;;;;5073378;28;20195;-76
2021/11/30 07:35:56;;;;;;;7.03;5.78;;;2.90;99.90;;;;;;5067828;28;20338;-75
2021/11/30 07:38:44;;;;;;;8.93;5.88;;;2.90;99.90;;;;;;5070866;28;20254;-76
2021/11/30 07:41:32;;;;;;;9.50;7.13;;;2.80;99.90;;;;;;5075562;28;20715;-75
2021/11/30 07:44:17;;;;;;;6.90;6.15;;;2.80;99.90;;;;;;5067646;28;20673;-76
2021/11/30 07:47:03;;;;;;;7.85;6.32;;;2.80;99.90;;;;;;5064172;28;20200;-76
2021/11/30 07:49:49;;;;;;;9.05;6.72;;;2.90;99.90;;;;;;5067389;28;20219;-75
2021/11/30 07:52:39;;;;;;;8.45;5.95;;;2.90;99.90;;;;;;5066530;28;20203;-76
2021/11/30 07:55:27;;;;;;;6.72;6.05;;;2.90;99.90;;;;;;5067587;28;20203;-76
2021/11/30 07:58:12;;;;;;;7.03;6.10;;;2.90;99.90;;;;;;5067723;28;20381;-76
2021/11/30 08:00:57;;;;;;;9.00;6.82;;;2.90;99.90;;;;;;5059369;28;20207;-76
2021/11/30 08:03:44;;;;;;;8.80;7.18;;;2.90;99.90;;;;;;5067113;28;20236;-76
2021/11/30 08:06:30;;;;;;;7.28;6.38;;;2.90;99.90;;;;;;5063144;28;20676;-76
2021/11/30 08:09:16;;;;;;;6.90;5.35;;;2.90;99.90;;;;;;5069006;28;20271;-76
2021/11/30 08:12:03;;;;;;;6.75;5.43;;;3.00;99.90;;;;;;5067388;28;20208;-76
2021/11/30 08:14:49;;;;;;;10.88;6.40;;;3.00;99.90;;;;;;5057815;28;20215;-76
2021/11/30 08:17:35;;;;;;;7.95;5.50;;;3.00;99.90;;;;;;5060255;28;20733;-76
2021/11/30 08:20:21;;;;;;;8.10;5.95;;;3.10;99.90;;;;;;5064106;28;20236;-75
2021/11/30 08:23:07;;;;;;;9.88;5.70;;;3.00;99.90;;;;;;5060898;28;20681;-75
2021/11/30 08:25:53;;;;;;;8.40;5.35;;;3.10;99.90;;;;;;5065583;28;20203;-75
2021/11/30 08:28:40;;;;;;;7.85;5.90;;;3.10;99.90;;;;;;5068425;28;20283;-74
2021/11/30 08:31:26;;;;;;;6.13;4.68;;;3.00;99.90;;;;;;5069169;28;20270;-74
2021/11/30 08:34:12;;;;;;;6.43;5.47;;;2.90;99.90;;;;;;5063516;28;20252;-74
2021/11/30 08:36:57;;;;;;;8.23;5.95;;;2.80;99.90;;;;;;5066519;28;20583;-74
2021/11/30 08:39:43;;;;;;;8.02;5.75;;;2.80;99.90;;;;;;5070551;28;20358;-75
2021/11/30 08:42:29;;;;;;;12.88;7.68;;;2.80;99.90;;;;;;5070563;28;20211;-74
2021/11/30 08:45:16;;;;;;;7.40;5.50;;;2.90;99.90;;;;;;5063940;28;20208;-75
2021/11/30 08:48:02;;;;;;;7.43;5.63;;;2.90;99.90;;;;;;5069405;28;20693;-74
2021/11/30 08:50:47;;;;;;;10.27;6.55;;;3.00;99.90;;;;;;5062797;28;20716;-74
2021/11/30 08:53:35;;;;;;;7.65;6.45;;;2.90;99.90;;;;;;5070676;28;20212;-75
2021/11/30 08:56:20;;;;;;;9.20;6.05;;;2.90;99.90;;;;;;5071337;28;20201;-74
2021/11/30 08:59:06;;;;;;;6.78;5.30;;;2.80;99.90;;;;;;5065226;28;20297;-74
2021/11/30 09:01:53;;;;;;;7.88;5.20;;;2.90;99.90;;;;;;5066281;28;20322;-73
2021/11/30 09:04:39;;;;;;;7.45;6.00;;;2.90;99.90;;;;;;5069732;28;20331;-74
2021/11/30 09:07:24;;;;;;;6.10;4.90;;;2.80;99.90;;;;;;5070018;28;20274;-74
2021/11/30 09:10:10;;;;;;;5.72;5.13;;;2.90;99.90;;;;;;5071104;28;20223;-75
2021/11/30 09:12:56;;;;;;;5.40;4.20;;;2.90;99.90;;;;;;5068154;28;20558;-74
2021/11/30 09:15:42;;;;;;;6.38;5.05;;;2.90;99.90;;;;;;5066232;28;20689;-74
2021/11/30 09:18:30;;;;;;;6.18;4.72;;;2.90;99.90;;;;;;5076248;28;20680;-75
2021/11/30 09:21:16;;;;;;;7.85;4.72;;;2.90;99.90;;;;;;5062921;28;20327;-74
2021/11/30 09:24:02;;;;;;;7.95;4.55;;;3.00;99.90;;;;;;5075453;28;20209;-73
2021/11/30 09:26:48;;;;;;;7.80;4.70;;;2.90;99.90;;;;;;5060025;28;20667;-74
2021/11/30 09:29:33;;;;;;;5.20;4.70;;;3.00;99.90;;;;;;5070549;28;20228;-74
2021/11/30 09:32:19;;;;;;;6.43;4.63;;;3.00;99.90;;;;;;5072601;28;20566;-74
2021/11/30 09:35:10;;;;;;;6.57;4.80;;;3.10;99.90;;;;;;5064423;28;20566;-74
2021/11/30 09:37:57;;;;;;;4.30;3.35;;;3.10;99.90;;;;;;5075216;28;20263;-74
2021/11/30 09:40:42;;;;;;;6.50;4.78;;;3.20;99.90;;;;;;5068919;28;20286;-75
2021/11/30 09:43:31;;;;;;;4.00;3.47;;;3.30;99.90;;;;;;5070729;28;20208;-74
2021/11/30 09:46:16;;;;;;;4.65;3.95;;;3.30;99.90;;;;;;5068213;28;20703;-74
2021/11/30 09:49:02;;;;;;;6.07;3.75;;;3.40;99.90;;;;;;5072197;28;20232;-72
2021/11/30 09:51:49;;;;;;;6.40;4.50;;;3.30;99.90;;;;;;5071201;28;20212;-72
2021/11/30 09:54:35;;;;;;;4.72;3.80;;;3.30;99.90;;;;;;5064240;28;20201;-72
2021/11/30 09:57:21;;;;;;;5.40;4.40;;;3.40;99.90;;;;;;5067103;28;20204;-71
2021/11/30 10:00:09;;;;;;;8.27;3.78;;;3.50;99.90;;;;;;5066343;28;20319;-74
2021/11/30 10:02:56;;;;;;;5.43;4.15;;;3.50;99.90;;;;;;5068018;28;20204;-72
2021/11/30 10:05:42;;;;;;;6.38;3.75;;;3.50;99.90;;;;;;5061037;28;20572;-73
2021/11/30 10:08:31;;;;;;;6.68;5.40;;;3.60;99.90;;;;;;5072624;28;20283;-72
2021/11/30 10:11:33;;;;;;;5.03;3.47;;;3.70;99.90;;;;;;5071463;28;20208;-73
2021/11/30 10:14:23;;;;;;;5.80;5.00;;;3.70;99.90;;;;;;5070427;28;20207;-73
2021/11/30 10:17:12;;;;;;;6.35;4.28;;;3.70;99.90;;;;;;5069812;28;20566;-73
2021/11/30 10:20:01;;;;;;;4.57;4.18;;;3.80;99.90;;;;;;5070077;28;20240;-73
2021/11/30 10:22:51;;;;;;;4.95;3.40;;;3.80;99.90;;;;;;5061276;28;20568;-73
2021/11/30 10:25:40;;;;;;;3.83;2.50;;;3.80;99.90;;;;;;5059311;28;20827;-73
2021/11/30 10:28:28;;;;;;;2.63;1.67;;;3.90;99.90;;;;;;5064907;28;20282;-73
2021/11/30 10:31:13;;;;;;;2.70;2.08;;;3.90;99.90;;;;;;5070538;28;20200;-73
2021/11/30 10:34:00;;;;;;;3.35;1.90;;;4.00;99.90;;;;;;5062108;28;20249;-73
2021/11/30 10:36:47;;;;;;;3.30;2.20;;;4.00;99.90;;;;;;5061282;28;20327;-73
2021/11/30 10:39:35;;;;;;;2.47;2.00;;;4.00;99.90;;;;;;5075462;28;20591;-73
2021/11/30 10:42:25;;;;;;;4.07;2.05;;;4.00;99.90;;;;;;5064020;28;20200;-73
2021/11/30 10:45:10;;;;;;;3.50;1.90;;;4.00;99.90;;;;;;5067700;28;20207;-72
2021/11/30 10:48:02;;;;;;;2.50;1.75;;;4.00;99.90;;;;;;5072132;28;20676;-73
2021/11/30 10:50:52;;;;;;;3.28;1.77;;;4.00;99.90;;;;;;5067151;28;20228;-73
2021/11/30 10:53:37;;;;;;;2.50;2.10;;;4.00;99.90;;;;;;5065090;28;20196;-73
2021/11/30 10:56:23;;;;;;;3.50;1.95;;;4.00;99.90;;;;;;5062238;28;20204;-72
2021/11/30 10:59:21;;;;;;;16.30;11.48;;;4.00;99.90;;;;;;5075427;28;20227;-73
2021/11/30 11:02:06;;;;;;;4.47;2.67;;;4.00;99.90;;;;;;5068062;28;20283;-72
2021/11/30 11:04:52;;;;;;;3.28;2.10;;;4.00;99.90;;;;;;5065333;28;20200;-73
2021/11/30 11:07:37;;;;;;;3.40;2.05;;;4.00;99.90;;;;;;5068808;28;20208;-73
2021/11/30 11:10:25;;;;;;;7.78;4.28;;;4.10;99.90;;;;;;5069099;28;20219;-73
2021/11/30 11:13:19;;;;;;;4.35;3.35;;;4.10;99.90;;;;;;5066500;28;20191;-73
2021/11/30 11:16:08;;;;;;;3.55;1.83;;;4.10;99.90;;;;;;5069337;28;20568;-73
2021/11/30 11:18:56;;;;;;;2.75;1.70;;;4.00;99.90;;;;;;5068569;28;20343;-72
2021/11/30 11:21:42;;;;;;;2.60;2.40;;;4.00;99.90;;;;;;5069688;28;20204;-72
2021/11/30 11:24:29;;;;;;;3.08;2.63;;;4.10;99.90;;;;;;5065377;28;20216;-73
2021/11/30 11:27:16;;;;;;;5.53;3.80;;;4.10;99.90;;;;;;5066200;28;20598;-72
2021/11/30 11:30:04;;;;;;;1.98;1.63;;;4.20;99.90;;;;;;5064664;28;20228;-72
2021/11/30 11:32:53;;;;;;;2.10;1.52;;;4.20;99.90;;;;;;5062828;28;20801;-73
2021/11/30 11:35:40;;;;;;;3.53;2.20;;;4.20;99.90;;;;;;5069084;28;20342;-72
2021/11/30 11:38:26;;;;;;;2.45;1.27;;;4.20;99.90;;;;;;5069747;28;20216;-73
2021/11/30 11:41:12;;;;;;;1.70;1.10;;;4.20;99.90;;;;;;5065585;28;20729;-72
2021/11/30 11:43:59;;;;;;;2.05;1.58;;;4.20;99.90;;;;;;5065120;28;20224;-73
2021/11/30 11:46:48;;;;;;;2.78;1.60;;;4.20;99.90;;;;;;5066041;28;20200;-73
2021/11/30 11:49:38;;;;;;;2.70;1.60;;;4.20;99.90;;;;;;5069231;28;20224;-72
2021/11/30 11:52:27;;;;;;;1.70;1.30;;;4.20;99.90;;;;;;5067891;28;20223;-73
2021/11/30 11:55:15;;;;;;;2.00;1.27;;;4.20;99.90;;;;;;5065901;28;20196;-73
2021/11/30 11:58:04;;;;;;;4.07;1.42;;;4.20;99.90;;;;;;5068601;28;20223;-72
2021/11/30 12:00:55;;;;;;;1.88;1.40;;;4.20;99.90;;;;;;5066193;28;20590;-72
2021/11/30 12:03:59;;;;;;;2.03;1.33;;;4.20;99.90;;;;;;5063441;28;20200;-72
2021/11/30 12:06:58;;;;;;;2.20;1.70;;;4.30;99.90;;;;;;5068195;28;20204;-73
2021/11/30 12:09:44;;;;;;;2.45;1.88;;;4.30;99.90;;;;;;5069035;28;20220;-73
2021/11/30 12:12:30;;;;;;;2.30;1.40;;;4.30;99.90;;;;;;5060294;28;20238;-73
2021/11/30 12:15:16;;;;;;;3.40;2.00;;;4.30;99.90;;;;;;5068211;28;20201;-72
2021/11/30 12:18:26;;;;;;;2.97;1.67;;;4.30;99.90;;;;;;5059218;28;20211;-73
2021/11/30 12:21:15;;;;;;;2.60;1.75;;;4.30;99.90;;;;;;5058873;28;20252;-72
2021/11/30 12:24:08;;;;;;;2.50;1.40;;;4.30;99.90;;;;;;5056799;28;20203;-72
2021/11/30 12:26:53;;;;;;;2.65;1.98;;;4.30;99.90;;;;;;5066161;28;20739;-72
2021/11/30 12:29:39;;;;;;;3.38;1.92;;;4.30;99.90;;;;;;5063440;28;20231;-72
2021/11/30 12:32:31;;;;;;;1.88;1.25;;;4.30;99.90;;;;;;5069290;28;20222;-72
2021/11/30 12:35:19;;;;;;;3.10;1.88;;;4.30;99.90;;;;;;5068683;28;20318;-72
2021/11/30 12:38:18;;;;;;;2.20;1.33;;;4.30;99.90;;;;;;5068265;28;20212;-72
2021/11/30 12:41:33;;;;;;;3.45;1.67;;;4.40;99.90;;;;;;5064691;28;20199;-72
2021/11/30 12:44:22;;;;;;;1.50;1.10;;;4.30;99.90;;;;;;5067946;28;20201;-72
2021/11/30 12:47:19;;;;;;;3.25;2.33;;;4.30;99.90;;;;;;5073698;28;20294;-72
2021/11/30 12:50:08;;;;;;;2.65;2.00;;;4.30;99.90;;;;;;5064218;28;20702;-72
2021/11/30 12:52:54;;;;;;;4.60;0.90;;;4.30;99.90;;;;;;5066659;28;20294;-72
2021/11/30 12:55:46;;;;;;;2.30;1.55;;;4.30;99.90;;;;;;5069461;28;20558;-72
2021/11/30 12:58:44;;;;;;;1.80;1.23;;;4.20;99.90;;;;;;5064481;28;20346;-72
2021/11/30 13:01:29;;;;;;;1.67;1.20;;;4.20;99.90;;;;;;5068046;28;20217;-72
2021/11/30 13:04:32;;;;;;;2.47;1.38;;;4.20;99.90;;;;;;5066465;28;20271;-72
2021/11/30 13:07:20;;;;;;;1.80;1.30;;;4.20;99.90;;;;;;5066091;28;20569;-73
2021/11/30 13:10:06;;;;;;;1.65;1.27;;;4.20;99.90;;;;;;5066273;28;20759;-72
2021/11/30 13:12:53;;;;;;;2.70;1.50;;;4.20;99.90;;;;;;5061516;28;20200;-73
2021/11/30 13:15:46;;;;;;;2.67;1.48;;;4.20;99.90;;;;;;5069057;28;20201;-72
2021/11/30 13:18:34;;;;;;;1.92;1.40;;;4.30;99.90;;;;;;5067800;28;20192;-72
2021/11/30 13:21:20;;;;;;;7.38;1.40;;;4.30;99.90;;;;;;5062815;28;20219;-73
2021/11/30 13:24:09;;;;;;;2.08;1.40;;;4.30;99.90;;;;;;5069588;28;20203;-72
2021/11/30 13:27:09;;;;;;;4.25;2.20;;;4.30;99.90;;;;;;5065128;28;20202;-72
2021/11/30 13:29:58;;;;;;;2.78;2.45;;;4.30;99.90;;;;;;5072518;28;20701;-72
2021/11/30 13:32:49;;;;;;;2.67;1.80;;;4.30;99.90;;;;;;5067183;28;20195;-72
2021/11/30 13:35:36;;;;;;;3.63;2.03;;;4.30;99.90;;;;;;5076122;28;20680;-71
2021/11/30 13:38:25;;;;;;;3.05;1.95;;;4.40;99.90;;;;;;5074293;28;20255;-73
2021/11/30 13:41:12;;;;;;;2.60;1.80;;;4.40;99.90;;;;;;5069284;28;20429;-73
2021/11/30 13:43:58;;;;;;;2.67;1.65;;;4.50;99.90;;;;;;5072613;28;20577;-72
2021/11/30 13:46:45;;;;;;;2.72;1.50;;;4.50;99.90;;;;;;5069345;28;20195;-72
2021/11/30 13:49:32;;;;;;;2.00;1.40;;;4.50;99.90;;;;;;5075065;28;20235;-72
2021/11/30 13:52:21;;;;;;;4.07;1.70;;;4.50;99.90;;;;;;5067575;28;20333;-73
2021/11/30 13:55:08;;;;;;;2.53;1.65;;;4.50;99.90;;;;;;5065618;28;20200;-72
2021/11/30 13:57:53;;;;;;;1.70;1.35;;;4.40;99.90;;;;;;5070268;28;20196;-72
2021/11/30 14:00:46;;;;;;;2.65;1.73;;;4.50;99.90;;;;;;5069716;28;20254;-70
2021/11/30 14:03:42;;;;;;;1.90;1.30;;;4.50;99.90;;;;;;5071731;28;20334;-71
2021/11/30 14:06:31;;;;;;;2.50;1.50;;;4.40;99.90;;;;;;5066846;28;20204;-70
2021/11/30 14:09:20;;;;;;;2.00;1.50;;;4.40;99.90;;;;;;5072577;28;20596;-71
2021/11/30 14:12:10;;;;;;;2.33;1.58;;;4.40;99.90;;;;;;5067061;28;20422;-71
2021/11/30 14:14:58;;;;;;;1.90;1.60;;;4.50;99.90;;;;;;5057044;28;20205;-71
2021/11/30 14:17:45;;;;;;;2.20;1.90;;;4.40;99.90;;;;;;5056611;28;20202;-71
2021/11/30 14:20:31;;;;;;;5.28;1.80;;;4.50;99.90;;;;;;5067706;28;20363;-74
2021/11/30 14:23:20;;;;;;;3.05;1.20;;;4.50;99.90;;;;;;5062704;28;20205;-73
2021/11/30 14:26:20;;;;;;;2.05;1.52;;;4.50;99.90;;;;;;5073769;28;20278;-74
2021/11/30 14:29:09;;;;;;;3.40;1.90;;;4.50;99.90;;;;;;5073787;28;20236;-74
2021/11/30 14:32:00;;;;;;;3.35;1.60;;;4.50;99.90;;;;;;5069689;28;20706;-73
2021/11/30 14:34:49;;;;;;;2.92;2.22;;;4.50;99.90;;;;;;5066648;28;20728;-74
2021/11/30 14:37:36;;;;;;;2.92;2.15;;;4.50;99.90;;;;;;5068541;28;20258;-74
2021/11/30 14:40:25;;;;;;;2.53;1.90;;;4.50;99.90;;;;;;5067324;28;20219;-73